Time,TemperatureF,DewpointF,PressureIn,WindDirection,WindDirectionDegrees,WindSpeedMPH,WindSpeedGustMPH,Humidity,HourlyPrecipIn,Conditions,Clouds,dailyrainin,SoftwareType,DateUTC
2013-05-14 00:04:00,42.9,38.1,30.20,North,0,0.0,0.0,83,0.00,,CLR,0.00,VWS V14.01,2013-05-14 04:04:00,
2013-05-14 00:05:00,42.8,38.0,30.21,NNE,25,0.0,0.0,83,0.00,,CLR,0.00,VWS V14.01,2013-05-14 04:05:00,
2013-05-14 00:10:00,42.5,38.0,30.20,SE,141,0.0,0.0,84,0.00,,CLR,0.00,VWS V14.01,2013-05-14 04:10:00,
2013-05-14 00:15:00,42.2,37.7,30.21,SSE,156,0.0,1.0,84,0.00,,CLR,0.00,VWS V14.01,2013-05-14 04:15:00,
2013-05-14 00:20:00,41.9,37.7,30.21,SSE,155,0.0,1.0,85,0.00,,CLR,0.00,VWS V14.01,2013-05-14 04:20:00,
2013-05-14 00:25:00,41.6,37.7,30.21,SSE,153,0.0,3.0,86,0.00,,CLR,0.00,VWS V14.01,2013-05-14 04:25:00,
2013-05-14 00:30:00,41.6,37.7,30.21,SE,145,0.0,1.0,86,0.00,,CLR,0.00,VWS V14.01,2013-05-14 04:30:00,
2013-05-14 00:35:00,41.6,37.1,30.21,SSE,153,0.0,0.0,84,0.00,,CLR,0.00,VWS V14.01,2013-05-14 04:35:00,
2013-05-14 00:40:00,41.9,37.4,30.21,SW,229,0.0,1.0,84,0.00,,CLR,0.00,VWS V14.01,2013-05-14 04:40:00,
2013-05-14 00:45:00,42.1,37.9,30.21,SW,224,0.0,1.0,85,0.00,,CLR,0.00,VWS V14.01,2013-05-14 04:45:00,
2013-05-14 00:50:00,42.2,38.0,30.21,NW,310,0.0,1.0,85,0.00,,CLR,0.00,VWS V14.01,2013-05-14 04:50:00,
2013-05-14 00:55:00,42.3,38.1,30.21,NNW,338,0.0,1.0,85,0.00,,CLR,0.00,VWS V14.01,2013-05-14 04:55:00,
2013-05-14 01:00:00,42.3,38.1,30.21,North,360,0.0,0.0,85,0.56,,CLR,0.00,VWS V14.01,2013-05-14 05:00:00,
2013-05-14 01:05:00,42.1,38.2,30.21,North,360,0.0,0.0,86,0.00,,CLR,0.00,VWS V14.01,2013-05-14 05:05:00,
2013-05-14 01:10:00,41.8,37.9,30.21,North,1,0.0,0.0,86,0.00,,CLR,0.00,VWS V14.01,2013-05-14 05:10:00,
2013-05-14 01:15:00,41.7,38.4,30.21,NNW,336,0.0,0.0,88,0.00,,CLR,0.00,VWS V14.01,2013-05-14 05:15:00,
2013-05-14 01:20:00,41.7,38.1,30.21,NNW,336,0.0,0.0,87,0.00,,CLR,0.00,VWS V14.01,2013-05-14 05:20:00,
2013-05-14 01:25:00,41.5,38.2,30.21,NNW,336,0.0,0.0,88,0.00,,CLR,0.00,VWS V14.01,2013-05-14 05:25:00,
2013-05-14 01:30:00,41.2,37.9,30.20,NNW,340,0.0,0.0,88,0.00,,CLR,0.00,VWS V14.01,2013-05-14 05:30:00,
2013-05-14 01:35:00,40.8,37.5,30.21,NNW,340,0.0,0.0,88,0.00,,CLR,0.00,VWS V14.01,2013-05-14 05:35:00,
2013-05-14 01:40:00,40.6,37.6,30.21,NNW,340,0.0,0.0,89,0.00,,CLR,0.00,VWS V14.01,2013-05-14 05:40:00,
2013-05-14 01:45:00,40.3,37.3,30.21,NNW,340,0.0,0.0,89,0.00,,CLR,0.00,VWS V14.01,2013-05-14 05:45:00,
2013-05-14 01:50:00,40.1,37.1,30.21,WSW,252,0.0,0.0,89,0.00,,CLR,0.00,VWS V14.01,2013-05-14 05:50:00,
2013-05-14 01:55:00,40.3,37.3,30.21,WSW,252,0.0,0.0,89,0.00,,CLR,0.00,VWS V14.01,2013-05-14 05:55:00,
2013-05-14 02:00:00,40.1,37.1,30.20,WSW,252,0.0,0.0,89,0.00,,CLR,0.00,VWS V14.01,2013-05-14 06:00:00,
2013-05-14 02:05:00,40.0,37.3,30.20,South,179,0.0,0.0,90,0.00,,CLR,0.00,VWS V14.01,2013-05-14 06:05:00,
2013-05-14 02:10:00,39.7,36.7,30.21,South,179,0.0,0.0,89,0.00,,CLR,0.00,VWS V14.01,2013-05-14 06:10:00,
2013-05-14 02:15:00,39.6,37.2,30.21,South,179,0.0,0.0,91,0.00,,CLR,0.00,VWS V14.01,2013-05-14 06:15:00,
2013-05-14 02:20:00,39.6,37.5,30.21,South,179,0.0,0.0,92,0.00,,CLR,0.00,VWS V14.01,2013-05-14 06:20:00,
2013-05-14 02:25:00,39.6,37.5,30.21,South,179,0.0,0.0,92,0.00,,CLR,0.00,VWS V14.01,2013-05-14 06:25:00,
2013-05-14 02:30:00,39.4,37.0,30.22,South,179,0.0,0.0,91,0.00,,CLR,0.00,VWS V14.01,2013-05-14 06:30:00,
2013-05-14 02:35:00,39.0,36.6,30.22,South,179,0.0,0.0,91,0.00,,CLR,0.00,VWS V14.01,2013-05-14 06:35:00,
2013-05-14 02:40:00,38.9,36.8,30.22,South,179,0.0,0.0,92,0.00,,CLR,0.00,VWS V14.01,2013-05-14 06:40:00,
2013-05-14 02:45:00,38.7,36.6,30.22,South,179,0.0,0.0,92,0.00,,CLR,0.00,VWS V14.01,2013-05-14 06:45:00,
2013-05-14 02:50:00,38.6,36.8,30.22,South,179,0.0,0.0,93,0.00,,CLR,0.00,VWS V14.01,2013-05-14 06:50:00,
2013-05-14 02:55:00,38.5,36.7,30.22,South,179,0.0,0.0,93,0.00,,CLR,0.00,VWS V14.01,2013-05-14 06:55:00,
2013-05-14 03:00:00,38.3,36.5,30.22,South,183,0.0,0.0,93,0.00,,CLR,0.00,VWS V14.01,2013-05-14 07:00:00,
2013-05-14 03:05:00,38.2,36.4,30.22,South,179,0.0,0.0,93,0.00,,CLR,0.00,VWS V14.01,2013-05-14 07:05:00,
2013-05-14 03:10:00,38.0,36.4,30.22,South,179,0.0,0.0,94,0.00,,CLR,0.00,VWS V14.01,2013-05-14 07:10:00,
2013-05-14 03:15:00,37.9,36.3,30.22,South,172,0.0,0.0,94,0.00,,CLR,0.00,VWS V14.01,2013-05-14 07:15:00,
2013-05-14 03:20:00,37.8,36.2,30.22,South,172,0.0,0.0,94,0.00,,CLR,0.00,VWS V14.01,2013-05-14 07:20:00,
2013-05-14 03:25:00,37.7,36.1,30.22,South,172,0.0,0.0,94,0.00,,CLR,0.00,VWS V14.01,2013-05-14 07:25:00,
2013-05-14 03:30:00,37.6,36.0,30.22,South,172,0.0,0.0,94,0.00,,CLR,0.00,VWS V14.01,2013-05-14 07:30:00,
2013-05-14 03:35:00,37.6,36.0,30.22,South,172,0.0,0.0,94,0.00,,CLR,0.00,VWS V14.01,2013-05-14 07:35:00,
2013-05-14 03:40:00,37.4,35.8,30.23,South,172,0.0,0.0,94,0.00,,CLR,0.00,VWS V14.01,2013-05-14 07:40:00,
2013-05-14 03:45:00,37.4,36.1,30.23,South,172,0.0,0.0,95,0.00,,CLR,0.00,VWS V14.01,2013-05-14 07:45:00,
2013-05-14 03:50:00,37.4,36.1,30.23,South,172,0.0,0.0,95,0.00,,CLR,0.00,VWS V14.01,2013-05-14 07:50:00,
2013-05-14 03:55:00,37.2,35.9,30.23,South,172,0.0,0.0,95,0.00,,CLR,0.00,VWS V14.01,2013-05-14 07:55:00,
2013-05-14 04:00:00,37.1,35.8,30.23,South,172,0.0,0.0,95,0.00,,CLR,0.00,VWS V14.01,2013-05-14 08:00:00,
2013-05-14 04:05:00,36.9,35.6,30.23,South,172,0.0,0.0,95,0.00,,CLR,0.00,VWS V14.01,2013-05-14 08:05:00,
2013-05-14 04:10:00,37.0,35.7,30.23,South,172,0.0,0.0,95,0.00,,CLR,0.00,VWS V14.01,2013-05-14 08:10:00,
2013-05-14 04:15:00,36.7,35.4,30.23,South,172,0.0,0.0,95,0.00,,CLR,0.00,VWS V14.01,2013-05-14 08:15:00,
2013-05-14 04:20:00,36.6,35.3,30.23,South,172,0.0,0.0,95,0.00,,CLR,0.00,VWS V14.01,2013-05-14 08:20:00,
2013-05-14 04:25:00,36.5,35.2,30.23,South,172,0.0,0.0,95,0.00,,CLR,0.00,VWS V14.01,2013-05-14 08:25:00,
2013-05-14 04:30:00,36.4,35.1,30.23,South,172,0.0,0.0,95,0.00,,CLR,0.00,VWS V14.01,2013-05-14 08:30:00,
2013-05-14 04:35:00,36.3,35.0,30.23,South,172,0.0,0.0,95,0.00,,CLR,0.00,VWS V14.01,2013-05-14 08:35:00,
2013-05-14 04:40:00,36.2,34.9,30.23,South,172,0.0,0.0,95,0.00,,CLR,0.00,VWS V14.01,2013-05-14 08:40:00,
2013-05-14 04:45:00,36.1,35.1,30.23,South,172,0.0,0.0,96,0.00,,CLR,0.00,VWS V14.01,2013-05-14 08:45:00,
2013-05-14 04:50:00,36.1,35.1,30.24,South,172,0.0,0.0,96,0.00,,CLR,0.00,VWS V14.01,2013-05-14 08:50:00,
2013-05-14 04:55:00,36.1,35.1,30.24,South,172,0.0,0.0,96,0.00,,CLR,0.00,VWS V14.01,2013-05-14 08:55:00,
2013-05-14 05:00:00,36.0,35.0,30.23,South,172,0.0,0.0,96,0.00,,CLR,0.00,VWS V14.01,2013-05-14 09:00:00,
2013-05-14 05:05:00,35.9,34.9,30.24,South,172,0.0,0.0,96,0.00,,CLR,0.00,VWS V14.01,2013-05-14 09:05:00,
2013-05-14 05:10:00,35.9,34.9,30.24,South,172,0.0,0.0,96,0.00,,CLR,0.00,VWS V14.01,2013-05-14 09:10:00,
2013-05-14 05:15:00,36.0,35.0,30.24,South,172,0.0,0.0,96,0.00,,CLR,0.00,VWS V14.01,2013-05-14 09:15:00,
2013-05-14 05:20:00,35.8,34.8,30.24,South,172,0.0,0.0,96,0.00,,CLR,0.00,VWS V14.01,2013-05-14 09:20:00,
2013-05-14 05:25:00,35.6,34.6,30.24,South,172,0.0,0.0,96,0.00,,CLR,0.00,VWS V14.01,2013-05-14 09:25:00,
2013-05-14 05:30:00,35.6,34.6,30.24,South,172,0.0,0.0,96,0.00,,CLR,0.00,VWS V14.01,2013-05-14 09:30:00,
2013-05-14 05:35:00,35.7,34.7,30.24,South,172,0.0,0.0,96,0.00,,CLR,0.00,VWS V14.01,2013-05-14 09:35:00,
2013-05-14 05:40:00,35.6,34.6,30.24,South,172,0.0,0.0,96,0.00,,CLR,0.00,VWS V14.01,2013-05-14 09:40:00,
2013-05-14 05:45:00,35.5,34.5,30.24,South,172,0.0,0.0,96,0.00,,CLR,0.00,VWS V14.01,2013-05-14 09:45:00,
2013-05-14 05:50:00,35.5,34.5,30.24,South,172,0.0,0.0,96,0.00,,CLR,0.00,VWS V14.01,2013-05-14 09:50:00,
2013-05-14 05:55:00,35.4,34.4,30.25,South,172,0.0,0.0,96,0.00,,CLR,0.00,VWS V14.01,2013-05-14 09:55:00,
2013-05-14 06:00:00,35.5,34.7,30.25,South,172,0.0,0.0,97,0.00,,CLR,0.00,VWS V14.01,2013-05-14 10:00:00,
2013-05-14 06:05:00,35.6,34.6,30.25,South,172,0.0,0.0,96,0.00,,CLR,0.00,VWS V14.01,2013-05-14 10:05:00,
2013-05-14 06:10:00,35.3,34.3,30.25,South,172,0.0,0.0,96,0.00,,CLR,0.00,VWS V14.01,2013-05-14 10:10:00,
2013-05-14 06:15:00,35.4,34.6,30.25,South,172,0.0,0.0,97,0.00,,CLR,0.00,VWS V14.01,2013-05-14 10:15:00,
2013-05-14 06:20:00,35.3,34.3,30.25,South,172,0.0,0.0,96,0.00,,CLR,0.00,VWS V14.01,2013-05-14 10:20:00,
2013-05-14 06:25:00,35.5,34.7,30.25,South,172,0.0,0.0,97,0.00,,CLR,0.00,VWS V14.01,2013-05-14 10:25:00,
2013-05-14 06:30:00,35.5,34.7,30.25,South,172,0.0,0.0,97,0.00,,CLR,0.00,VWS V14.01,2013-05-14 10:30:00,
2013-05-14 06:35:00,35.5,34.7,30.25,South,172,0.0,0.0,97,0.00,,CLR,0.00,VWS V14.01,2013-05-14 10:35:00,
2013-05-14 06:40:00,35.5,34.5,30.25,South,172,0.0,0.0,96,0.00,,CLR,0.00,VWS V14.01,2013-05-14 10:40:00,
2013-05-14 06:45:00,36.0,35.2,30.25,South,172,0.0,0.0,97,0.00,,CLR,0.00,VWS V14.01,2013-05-14 10:45:00,
2013-05-14 06:50:00,36.7,35.7,30.25,South,172,0.0,0.0,96,0.00,,CLR,0.00,VWS V14.01,2013-05-14 10:50:00,
2013-05-14 06:55:00,37.4,36.4,30.25,South,172,0.0,0.0,96,0.00,,CLR,0.00,VWS V14.01,2013-05-14 10:55:00,
2013-05-14 07:00:00,37.8,36.0,30.26,SSE,151,2.0,3.0,93,0.00,,CLR,0.00,VWS V14.01,2013-05-14 11:00:00,
2013-05-14 07:05:00,38.2,36.6,30.26,SSE,150,0.0,0.0,94,0.00,,CLR,0.00,VWS V14.01,2013-05-14 11:05:00,
2013-05-14 07:10:00,38.9,37.3,30.26,SW,226,0.0,0.0,94,0.00,,CLR,0.00,VWS V14.01,2013-05-14 11:10:00,
2013-05-14 07:15:00,40.1,38.0,30.26,SW,223,0.0,0.0,92,0.00,,CLR,0.00,VWS V14.01,2013-05-14 11:15:00,
2013-05-14 07:20:00,41.1,38.4,30.26,NNE,20,2.0,2.0,90,0.00,,CLR,0.00,VWS V14.01,2013-05-14 11:20:00,
2013-05-14 07:25:00,41.3,38.9,30.26,NNE,33,0.0,0.0,91,0.00,,CLR,0.00,VWS V14.01,2013-05-14 11:25:00,
2013-05-14 07:30:00,42.8,40.1,30.26,NNE,32,2.0,2.0,90,0.00,,CLR,0.00,VWS V14.01,2013-05-14 11:30:00,
2013-05-14 07:35:00,43.0,39.7,30.27,NNE,33,1.0,1.0,88,0.00,,CLR,0.00,VWS V14.01,2013-05-14 11:35:00,
2013-05-14 07:40:00,43.5,40.2,30.27,NNE,14,0.0,0.0,88,0.00,,CLR,0.00,VWS V14.01,2013-05-14 11:40:00,
2013-05-14 07:45:00,44.5,40.6,30.27,SE,145,0.0,0.0,86,0.00,,CLR,0.00,VWS V14.01,2013-05-14 11:45:00,
2013-05-14 07:50:00,45.3,40.5,30.27,SW,229,0.0,0.0,83,0.00,,CLR,0.00,VWS V14.01,2013-05-14 11:50:00,
2013-05-14 07:55:00,46.5,42.2,30.27,SE,129,0.0,0.0,85,0.00,,CLR,0.00,VWS V14.01,2013-05-14 11:55:00,
2013-05-14 08:00:00,47.8,41.0,30.27,SSE,148,0.0,0.0,77,0.00,,CLR,0.00,VWS V14.01,2013-05-14 12:00:00,
2013-05-14 08:05:00,48.5,41.6,30.27,NE,41,1.0,1.0,77,0.00,,CLR,0.00,VWS V14.01,2013-05-14 12:05:00,
2013-05-14 08:10:00,49.4,40.0,30.27,SSE,153,0.0,1.0,70,0.00,,CLR,0.00,VWS V14.01,2013-05-14 12:10:00,
2013-05-14 08:15:00,50.3,41.3,30.27,NE,41,0.0,0.0,71,0.00,,CLR,0.00,VWS V14.01,2013-05-14 12:15:00,
2013-05-14 08:20:00,50.6,41.6,30.27,North,1,1.0,1.0,71,0.00,,CLR,0.00,VWS V14.01,2013-05-14 12:20:00,
2013-05-14 08:25:00,51.2,41.4,30.27,NNE,19,0.0,1.0,69,0.00,,CLR,0.00,VWS V14.01,2013-05-14 12:25:00,
2013-05-14 08:30:00,52.0,42.2,30.27,NNE,32,1.0,1.0,69,0.00,,CLR,0.00,VWS V14.01,2013-05-14 12:30:00,
2013-05-14 08:35:00,52.5,42.3,30.27,NNE,30,2.0,2.0,68,0.00,,CLR,0.00,VWS V14.01,2013-05-14 12:35:00,
2013-05-14 08:40:00,53.2,40.5,30.27,SE,134,0.0,1.0,62,0.00,,CLR,0.00,VWS V14.01,2013-05-14 12:40:00,
2013-05-14 08:45:00,54.0,40.9,30.27,SE,136,0.0,1.0,61,0.00,,CLR,0.00,VWS V14.01,2013-05-14 12:45:00,
2013-05-14 08:50:00,54.6,37.8,30.27,SE,127,2.0,7.0,53,0.00,,CLR,0.00,VWS V14.01,2013-05-14 12:50:00,
2013-05-14 08:55:00,54.5,40.0,30.27,SE,134,1.0,1.0,58,0.00,,CLR,0.00,VWS V14.01,2013-05-14 12:55:00,
2013-05-14 09:00:00,54.9,39.0,30.27,SE,142,0.0,2.0,55,0.00,,CLR,0.00,VWS V14.01,2013-05-14 13:00:00,
2013-05-14 09:05:00,55.5,38.2,30.26,SSE,155,3.0,3.0,52,0.00,,CLR,0.00,VWS V14.01,2013-05-14 13:05:00,
2013-05-14 09:10:00,56.4,38.5,30.26,SSE,162,3.0,5.0,51,0.00,,CLR,0.00,VWS V14.01,2013-05-14 13:10:00,
2013-05-14 09:15:00,57.0,37.0,30.26,SE,129,1.0,3.0,47,0.00,,CLR,0.00,VWS V14.01,2013-05-14 13:15:00,
2013-05-14 09:20:00,57.9,38.9,30.26,SE,142,1.0,2.0,49,0.00,,CLR,0.00,VWS V14.01,2013-05-14 13:20:00,
2013-05-14 09:25:00,58.3,36.5,30.27,SW,221,1.0,3.0,44,0.00,,CLR,0.00,VWS V14.01,2013-05-14 13:25:00,
2013-05-14 09:30:00,58.5,35.5,30.26,SE,145,0.0,6.0,42,0.00,,CLR,0.00,VWS V14.01,2013-05-14 13:30:00,
2013-05-14 09:35:00,58.8,38.1,30.26,SSE,153,2.0,2.0,46,0.00,,CLR,0.00,VWS V14.01,2013-05-14 13:35:00,
2013-05-14 09:40:00,59.1,36.7,30.26,West,260,4.0,8.0,43,0.00,,CLR,0.00,VWS V14.01,2013-05-14 13:40:00,
2013-05-14 09:45:00,59.2,37.9,30.26,WSW,241,3.0,6.0,45,0.00,,CLR,0.00,VWS V14.01,2013-05-14 13:45:00,
2013-05-14 09:50:00,59.4,38.6,30.26,SSE,163,2.0,4.0,46,0.00,,CLR,0.00,VWS V14.01,2013-05-14 13:50:00,
2013-05-14 09:55:00,60.0,38.6,30.26,SSE,159,4.0,4.0,45,0.00,,CLR,0.00,VWS V14.01,2013-05-14 13:55:00,
2013-05-14 10:00:00,59.8,37.3,30.26,SW,218,2.0,4.0,43,0.00,,CLR,0.00,VWS V14.01,2013-05-14 14:00:00,
2013-05-14 10:05:00,60.3,37.7,30.26,SW,229,2.0,3.0,43,0.00,,CLR,0.00,VWS V14.01,2013-05-14 14:05:00,
2013-05-14 10:10:00,60.7,36.9,30.26,SW,219,3.0,8.0,41,0.00,,CLR,0.00,VWS V14.01,2013-05-14 14:10:00,
2013-05-14 10:15:00,60.5,39.1,30.27,SE,139,0.0,3.0,45,0.00,,CLR,0.00,VWS V14.01,2013-05-14 14:15:00,
2013-05-14 10:20:00,60.3,37.1,30.26,SE,142,1.0,6.0,42,0.00,,CLR,0.00,VWS V14.01,2013-05-14 14:20:00,
2013-05-14 10:25:00,60.9,37.7,30.26,SE,139,5.0,6.0,42,0.00,,CLR,0.00,VWS V14.01,2013-05-14 14:25:00,
2013-05-14 10:30:00,61.1,38.5,30.26,South,169,3.0,3.0,43,0.00,,CLR,0.00,VWS V14.01,2013-05-14 14:30:00,
2013-05-14 10:35:00,60.9,36.4,30.26,SE,146,0.0,3.0,40,0.00,,CLR,0.00,VWS V14.01,2013-05-14 14:35:00,
2013-05-14 10:40:00,62.0,39.3,30.26,NE,47,0.0,5.0,43,0.00,,CLR,0.00,VWS V14.01,2013-05-14 14:40:00,
2013-05-14 10:45:00,63.0,39.0,30.26,SW,233,3.0,3.0,41,0.00,,CLR,0.00,VWS V14.01,2013-05-14 14:45:00,
2013-05-14 10:50:00,63.6,37.5,30.26,NNE,29,1.0,2.0,38,0.00,,CLR,0.00,VWS V14.01,2013-05-14 14:50:00,
2013-05-14 10:55:00,64.4,38.3,30.26,SE,146,3.0,3.0,38,0.00,,CLR,0.00,VWS V14.01,2013-05-14 14:55:00,
2013-05-14 11:00:00,64.6,41.0,30.26,NNE,13,0.0,1.0,42,0.00,,CLR,0.00,VWS V14.01,2013-05-14 15:00:00,
2013-05-14 11:05:00,66.0,41.0,30.26,NNE,15,2.0,3.0,40,0.00,,CLR,0.00,VWS V14.01,2013-05-14 15:05:00,
2013-05-14 11:10:00,64.3,38.8,30.26,NNE,30,3.0,6.0,39,0.00,,CLR,0.00,VWS V14.01,2013-05-14 15:10:00,
2013-05-14 11:15:00,64.2,38.1,30.26,SW,215,2.0,3.0,38,0.00,,CLR,0.00,VWS V14.01,2013-05-14 15:15:00,
2013-05-14 11:20:00,65.4,39.8,30.26,SW,218,1.0,2.0,39,0.00,,CLR,0.00,VWS V14.01,2013-05-14 15:20:00,
2013-05-14 11:25:00,66.3,41.9,30.25,WSW,243,0.0,1.0,41,0.00,,CLR,0.00,VWS V14.01,2013-05-14 15:25:00,
2013-05-14 11:30:00,67.1,38.6,30.25,SW,225,2.0,2.0,35,0.00,,CLR,0.00,VWS V14.01,2013-05-14 15:30:00,
2013-05-14 11:35:00,66.8,38.3,30.25,SW,219,1.0,2.0,35,0.00,,CLR,0.00,VWS V14.01,2013-05-14 15:35:00,
2013-05-14 11:40:00,66.9,36.9,30.25,SW,218,2.0,5.0,33,0.00,,CLR,0.00,VWS V14.01,2013-05-14 15:40:00,
2013-05-14 11:45:00,66.8,39.0,30.25,SSE,153,2.0,4.0,36,0.00,,CLR,0.00,VWS V14.01,2013-05-14 15:45:00,
2013-05-14 11:50:00,67.6,40.4,30.25,SE,142,1.0,3.0,37,0.00,,CLR,0.00,VWS V14.01,2013-05-14 15:50:00,
2013-05-14 11:55:00,68.5,40.5,30.24,SSW,200,3.0,5.0,36,0.00,,CLR,0.00,VWS V14.01,2013-05-14 15:55:00,
2013-05-14 12:00:00,67.9,38.5,30.24,NNW,345,1.0,1.0,34,0.00,,CLR,0.00,VWS V14.01,2013-05-14 16:00:00,
2013-05-14 12:05:00,68.2,41.0,30.24,NNE,30,3.0,5.0,37,0.00,,CLR,0.00,VWS V14.01,2013-05-14 16:05:00,
2013-05-14 12:10:00,68.9,40.2,30.23,SW,214,2.0,2.0,35,0.00,,CLR,0.00,VWS V14.01,2013-05-14 16:10:00,
2013-05-14 12:15:00,69.4,41.3,30.23,NW,325,0.0,2.0,36,0.00,,CLR,0.00,VWS V14.01,2013-05-14 16:15:00,
2013-05-14 12:20:00,69.6,38.5,30.23,NNE,13,2.0,3.0,32,0.00,,CLR,0.00,VWS V14.01,2013-05-14 16:20:00,
2013-05-14 12:25:00,69.4,40.6,30.23,WSW,257,3.0,5.0,35,0.00,,CLR,0.00,VWS V14.01,2013-05-14 16:25:00,
2013-05-14 12:30:00,70.2,39.0,30.23,West,259,0.0,1.0,32,0.00,,CLR,0.00,VWS V14.01,2013-05-14 16:30:00,
2013-05-14 12:35:00,69.9,39.5,30.22,SSE,160,2.0,2.0,33,0.00,,CLR,0.00,VWS V14.01,2013-05-14 16:35:00,
2013-05-14 12:40:00,69.7,38.5,30.22,SE,139,2.0,2.0,32,0.00,,CLR,0.00,VWS V14.01,2013-05-14 16:40:00,
2013-05-14 12:45:00,68.8,39.3,30.22,SSE,150,0.0,1.0,34,0.00,,CLR,0.00,VWS V14.01,2013-05-14 16:45:00,
2013-05-14 12:50:00,69.0,39.5,30.22,ESE,107,1.0,3.0,34,0.00,,CLR,0.00,VWS V14.01,2013-05-14 16:50:00,
2013-05-14 12:55:00,69.9,41.0,30.22,SSE,166,1.0,3.0,35,0.00,,CLR,0.00,VWS V14.01,2013-05-14 16:55:00,
2013-05-14 13:00:00,69.9,39.5,30.22,SSW,205,3.0,4.0,33,0.00,,CLR,0.00,VWS V14.01,2013-05-14 17:00:00,
2013-05-14 13:05:00,69.8,41.7,30.21,SE,129,2.0,5.0,36,0.00,,CLR,0.00,VWS V14.01,2013-05-14 17:05:00,
2013-05-14 13:10:00,69.2,39.7,30.21,WSW,257,2.0,6.0,34,0.00,,CLR,0.00,VWS V14.01,2013-05-14 17:10:00,
2013-05-14 13:15:00,70.1,41.2,30.21,SW,215,5.0,5.0,35,0.00,,CLR,0.00,VWS V14.01,2013-05-14 17:15:00,
2013-05-14 13:20:00,70.7,43.2,30.21,SE,128,1.0,3.0,37,0.00,,CLR,0.00,VWS V14.01,2013-05-14 17:20:00,
2013-05-14 13:25:00,70.4,41.5,30.21,SSE,160,5.0,5.0,35,0.00,,CLR,0.00,VWS V14.01,2013-05-14 17:25:00,
2013-05-14 13:30:00,70.0,38.8,30.20,SSE,153,4.0,8.0,32,0.00,,CLR,0.00,VWS V14.01,2013-05-14 17:30:00,
2013-05-14 13:35:00,69.8,40.9,30.20,South,173,2.0,6.0,35,0.00,,CLR,0.00,VWS V14.01,2013-05-14 17:35:00,
2013-05-14 13:40:00,70.3,39.1,30.20,South,172,4.0,6.0,32,0.00,,CLR,0.00,VWS V14.01,2013-05-14 17:40:00,
2013-05-14 13:45:00,70.1,40.5,30.19,WSW,242,2.0,9.0,34,0.00,,CLR,0.00,VWS V14.01,2013-05-14 17:45:00,
2013-05-14 13:50:00,70.7,42.5,30.19,SW,218,1.0,7.0,36,0.00,,CLR,0.00,VWS V14.01,2013-05-14 17:50:00,
2013-05-14 13:55:00,70.9,40.4,30.19,SE,134,2.0,7.0,33,0.00,,CLR,0.00,VWS V14.01,2013-05-14 17:55:00,
2013-05-14 14:00:00,71.4,43.1,30.18,SE,129,2.0,4.0,36,0.00,,CLR,0.00,VWS V14.01,2013-05-14 18:00:00,
2013-05-14 14:05:00,71.9,42.8,30.18,ESE,110,1.0,3.0,35,0.00,,CLR,0.00,VWS V14.01,2013-05-14 18:05:00,
2013-05-14 14:10:00,71.9,41.3,30.18,WSW,240,1.0,6.0,33,0.00,,CLR,0.00,VWS V14.01,2013-05-14 18:10:00,
2013-05-14 14:15:00,72.6,42.7,30.18,SE,145,1.0,2.0,34,0.00,,CLR,0.00,VWS V14.01,2013-05-14 18:15:00,
2013-05-14 14:20:00,72.8,39.6,30.17,WSW,242,7.0,8.0,30,0.00,,CLR,0.00,VWS V14.01,2013-05-14 18:20:00,
2013-05-14 14:25:00,73.0,43.0,30.17,WSW,247,9.0,9.0,34,0.00,,CLR,0.00,VWS V14.01,2013-05-14 18:25:00,
2013-05-14 14:30:00,73.8,42.1,30.17,WSW,246,2.0,5.0,32,0.00,,CLR,0.00,VWS V14.01,2013-05-14 18:30:00,
2013-05-14 14:35:00,74.4,42.7,30.17,WNW,293,1.0,4.0,32,0.00,,CLR,0.00,VWS V14.01,2013-05-14 18:35:00,
2013-05-14 14:40:00,74.7,40.4,30.17,SSW,210,4.0,7.0,29,0.00,,CLR,0.00,VWS V14.01,2013-05-14 18:40:00,
2013-05-14 14:45:00,74.9,39.6,30.17,WSW,253,3.0,3.0,28,0.00,,CLR,0.00,VWS V14.01,2013-05-14 18:45:00,
2013-05-14 14:50:00,75.0,39.7,30.16,SW,229,1.0,9.0,28,0.00,,CLR,0.00,VWS V14.01,2013-05-14 18:50:00,
2013-05-14 14:55:00,75.0,41.5,30.16,WNW,295,2.0,3.0,30,0.00,,CLR,0.00,VWS V14.01,2013-05-14 18:55:00,
2013-05-14 15:00:00,75.4,41.0,30.16,SW,222,3.0,4.0,29,0.00,,CLR,0.00,VWS V14.01,2013-05-14 19:00:00,
2013-05-14 15:05:00,75.4,41.8,30.15,SSW,210,0.0,3.0,30,0.00,,CLR,0.00,VWS V14.01,2013-05-14 19:05:00,
2013-05-14 15:10:00,75.4,41.0,30.15,South,191,0.0,2.0,29,0.00,,CLR,0.00,VWS V14.01,2013-05-14 19:10:00,
2013-05-14 15:15:00,75.7,42.1,30.15,SE,145,2.0,3.0,30,0.00,,CLR,0.00,VWS V14.01,2013-05-14 19:15:00,
2013-05-14 15:20:00,74.9,40.5,30.14,NW,305,1.0,1.0,29,0.00,,CLR,0.00,VWS V14.01,2013-05-14 19:20:00,
2013-05-14 15:25:00,74.7,42.9,30.14,NW,307,2.0,2.0,32,0.00,,CLR,0.00,VWS V14.01,2013-05-14 19:25:00,
2013-05-14 15:30:00,75.7,42.1,30.14,SSE,148,2.0,4.0,30,0.00,,CLR,0.00,VWS V14.01,2013-05-14 19:30:00,
2013-05-14 15:35:00,76.3,43.5,30.13,WSW,248,2.0,3.0,31,0.00,,CLR,0.00,VWS V14.01,2013-05-14 19:35:00,
2013-05-14 15:40:00,76.5,42.8,30.13,SW,218,0.0,3.0,30,0.00,,CLR,0.00,VWS V14.01,2013-05-14 19:40:00,
2013-05-14 15:45:00,76.6,45.4,30.13,SW,214,1.0,2.0,33,0.00,,CLR,0.00,VWS V14.01,2013-05-14 19:45:00,
2013-05-14 15:50:00,76.4,43.6,30.13,SW,226,7.0,10.0,31,0.00,,CLR,0.00,VWS V14.01,2013-05-14 19:50:00,
2013-05-14 15:55:00,75.1,43.3,30.12,SW,229,1.0,4.0,32,0.00,,CLR,0.00,VWS V14.01,2013-05-14 19:55:00,
2013-05-14 16:00:00,75.4,43.5,30.12,NNW,342,3.0,10.0,32,0.00,,CLR,0.00,VWS V14.01,2013-05-14 20:00:00,
2013-05-14 16:05:00,74.9,43.9,30.12,SE,141,3.0,7.0,33,0.00,,CLR,0.00,VWS V14.01,2013-05-14 20:05:00,
2013-05-14 16:10:00,74.6,45.2,30.11,SW,217,2.0,3.0,35,0.00,,CLR,0.00,VWS V14.01,2013-05-14 20:10:00,
2013-05-14 16:15:00,75.1,44.1,30.11,SW,227,4.0,6.0,33,0.00,,CLR,0.00,VWS V14.01,2013-05-14 20:15:00,
2013-05-14 16:20:00,74.9,44.7,30.11,WSW,238,7.0,7.0,34,0.00,,CLR,0.00,VWS V14.01,2013-05-14 20:20:00,
2013-05-14 16:25:00,74.2,44.8,30.11,SSW,208,1.0,2.0,35,0.00,,CLR,0.00,VWS V14.01,2013-05-14 20:25:00,
2013-05-14 16:30:00,74.3,44.1,30.10,West,269,0.0,4.0,34,0.00,,CLR,0.00,VWS V14.01,2013-05-14 20:30:00,
2013-05-14 16:35:00,74.7,44.5,30.11,West,276,2.0,16.0,34,0.00,,CLR,0.00,VWS V14.01,2013-05-14 20:35:00,
2013-05-14 16:40:00,73.9,43.0,30.10,SW,219,5.0,9.0,33,0.00,,CLR,0.00,VWS V14.01,2013-05-14 20:40:00,
2013-05-14 16:45:00,73.3,43.3,30.10,SW,218,4.0,4.0,34,0.00,,CLR,0.00,VWS V14.01,2013-05-14 20:45:00,
2013-05-14 16:50:00,72.9,43.7,30.10,SW,226,3.0,5.0,35,0.00,,CLR,0.00,VWS V14.01,2013-05-14 20:50:00,
2013-05-14 16:55:00,72.8,42.8,30.10,WSW,248,0.0,11.0,34,0.00,,CLR,0.00,VWS V14.01,2013-05-14 20:55:00,
2013-05-14 17:00:00,72.9,44.4,30.10,SSE,160,0.0,3.0,36,0.00,,CLR,0.00,VWS V14.01,2013-05-14 21:00:00,
2013-05-14 17:04:00,72.7,43.5,30.10,WSW,246,4.0,9.0,35,0.00,,CLR,0.00,VWS V14.01,2013-05-14 21:04:00,
2013-05-14 17:09:00,72.4,44.0,30.10,SW,219,3.0,3.0,36,0.00,,CLR,0.00,VWS V14.01,2013-05-14 21:09:00,
2013-05-14 17:14:00,72.5,43.3,30.10,SE,142,2.0,7.0,35,0.00,,CLR,0.00,VWS V14.01,2013-05-14 21:14:00,
2013-05-14 17:19:00,72.5,44.1,30.10,SW,215,1.0,2.0,36,0.00,,CLR,0.00,VWS V14.01,2013-05-14 21:19:00,
2013-05-14 17:24:00,73.0,44.5,30.10,South,174,1.0,2.0,36,0.00,,CLR,0.00,VWS V14.01,2013-05-14 21:24:00,
2013-05-14 17:29:00,73.0,43.8,30.10,SSW,195,3.0,9.0,35,0.00,,CLR,0.00,VWS V14.01,2013-05-14 21:29:00,
2013-05-14 17:34:00,72.4,44.0,30.10,SW,221,3.0,10.0,36,0.00,,CLR,0.00,VWS V14.01,2013-05-14 21:34:00,
2013-05-14 17:39:00,72.1,43.7,30.10,SW,222,4.0,6.0,36,0.00,,CLR,0.00,VWS V14.01,2013-05-14 21:39:00,
2013-05-14 17:44:00,72.0,44.3,30.10,WSW,242,5.0,8.0,37,0.00,,CLR,0.00,VWS V14.01,2013-05-14 21:44:00,
2013-05-14 17:49:00,71.7,44.1,30.10,West,280,5.0,8.0,37,0.00,,CLR,0.00,VWS V14.01,2013-05-14 21:49:00,
2013-05-14 17:54:00,71.7,44.8,30.10,SSE,150,3.0,7.0,38,0.00,,CLR,0.00,VWS V14.01,2013-05-14 21:54:00,
2013-05-14 17:59:00,71.8,44.2,30.10,SW,226,3.0,5.0,37,0.00,,CLR,0.00,VWS V14.01,2013-05-14 21:59:00,
2013-05-14 18:04:00,71.8,44.8,30.10,SW,215,2.0,2.0,38,0.00,,CLR,0.00,VWS V14.01,2013-05-14 22:04:00,
2013-05-14 18:09:00,71.7,44.1,30.10,WSW,256,5.0,6.0,37,0.00,,CLR,0.00,VWS V14.01,2013-05-14 22:09:00,
2013-05-14 18:14:00,71.6,44.7,30.10,SW,229,5.0,5.0,38,0.00,,CLR,0.00,VWS V14.01,2013-05-14 22:14:00,
2013-05-14 18:19:00,71.6,45.4,30.10,SW,235,2.0,5.0,39,0.00,,CLR,0.00,VWS V14.01,2013-05-14 22:19:00,
2013-05-14 18:24:00,71.4,44.5,30.10,WSW,240,5.0,7.0,38,0.00,,CLR,0.00,VWS V14.01,2013-05-14 22:24:00,
2013-05-14 18:29:00,71.4,44.5,30.10,SW,227,1.0,3.0,38,0.00,,CLR,0.00,VWS V14.01,2013-05-14 22:29:00,
2013-05-14 18:34:00,71.4,45.2,30.10,SW,233,3.0,3.0,39,0.00,,CLR,0.00,VWS V14.01,2013-05-14 22:34:00,
2013-05-14 18:39:00,71.3,44.4,30.10,SSW,210,5.0,6.0,38,0.00,,CLR,0.00,VWS V14.01,2013-05-14 22:39:00,
2013-05-14 18:44:00,71.2,44.3,30.10,SE,138,3.0,6.0,38,0.00,,CLR,0.00,VWS V14.01,2013-05-14 22:44:00,
2013-05-14 18:49:00,71.0,46.8,30.10,WSW,250,5.0,5.0,42,0.00,,CLR,0.00,VWS V14.01,2013-05-14 22:49:00,
2013-05-14 18:54:00,70.8,45.3,30.10,SW,222,4.0,6.0,40,0.00,,CLR,0.00,VWS V14.01,2013-05-14 22:54:00,
2013-05-14 18:59:00,70.6,45.8,30.09,SW,222,3.0,3.0,41,0.00,,CLR,0.00,VWS V14.01,2013-05-14 22:59:00,
2013-05-14 19:04:00,70.5,45.7,30.09,SW,235,6.0,7.0,41,0.00,,CLR,0.00,VWS V14.01,2013-05-14 23:04:00,
2013-05-14 19:09:00,70.3,45.5,30.09,WSW,253,1.0,4.0,41,0.00,,CLR,0.00,VWS V14.01,2013-05-14 23:09:00,
2013-05-14 19:14:00,70.1,46.0,30.09,SSE,155,0.0,1.0,42,0.00,,CLR,0.00,VWS V14.01,2013-05-14 23:14:00,
2013-05-14 19:19:00,70.0,45.9,30.09,WSW,241,2.0,2.0,42,0.00,,CLR,0.00,VWS V14.01,2013-05-14 23:19:00,
2013-05-14 19:24:00,69.8,45.1,30.09,SSW,212,1.0,4.0,41,0.00,,CLR,0.00,VWS V14.01,2013-05-14 23:24:00,
2013-05-14 19:29:00,69.7,45.6,30.08,SW,229,2.0,5.0,42,0.00,,CLR,0.00,VWS V14.01,2013-05-14 23:29:00,
2013-05-14 19:34:00,69.5,45.4,30.08,West,270,3.0,7.0,42,0.00,,CLR,0.00,VWS V14.01,2013-05-14 23:34:00,
2013-05-14 19:39:00,69.4,46.0,30.08,SW,217,1.0,2.0,43,0.00,,CLR,0.00,VWS V14.01,2013-05-14 23:39:00,
2013-05-14 19:44:00,69.1,46.9,30.08,SW,218,0.0,1.0,45,0.00,,CLR,0.00,VWS V14.01,2013-05-14 23:44:00,
2013-05-14 19:49:00,68.8,46.6,30.08,SW,229,0.0,2.0,45,0.00,,CLR,0.00,VWS V14.01,2013-05-14 23:49:00,
2013-05-14 19:54:00,68.4,45.7,30.09,SSW,210,4.0,7.0,44,0.00,,CLR,0.00,VWS V14.01,2013-05-14 23:54:00,
2013-05-14 19:59:00,68.4,46.2,30.08,South,191,0.0,0.0,45,0.00,,CLR,0.00,VWS V14.01,2013-05-14 23:59:00,
2013-05-14 20:04:00,68.0,46.5,30.08,South,169,0.0,2.0,46,0.00,,CLR,0.00,VWS V14.01,2013-05-15 00:04:00,
2013-05-14 20:09:00,67.5,46.6,30.08,West,260,0.0,2.0,47,0.00,,CLR,0.00,VWS V14.01,2013-05-15 00:09:00,
2013-05-14 20:14:00,66.9,46.0,30.08,SW,222,0.0,0.0,47,0.00,,CLR,0.00,VWS V14.01,2013-05-15 00:14:00,
2013-05-14 20:19:00,66.5,46.2,30.08,South,187,0.0,1.0,48,0.00,,CLR,0.00,VWS V14.01,2013-05-15 00:19:00,
2013-05-14 20:24:00,66.3,46.0,30.08,West,263,2.0,2.0,48,0.00,,CLR,0.00,VWS V14.01,2013-05-15 00:24:00,
2013-05-14 20:29:00,66.1,46.4,30.08,SW,235,0.0,1.0,49,0.00,,CLR,0.00,VWS V14.01,2013-05-15 00:29:00,
2013-05-14 20:34:00,65.8,46.1,30.08,SW,227,0.0,3.0,49,0.00,,CLR,0.00,VWS V14.01,2013-05-15 00:34:00,
2013-05-14 20:39:00,65.4,48.8,30.08,South,184,1.0,1.0,55,0.00,,CLR,0.00,VWS V14.01,2013-05-15 00:39:00,
2013-05-14 20:44:00,64.4,48.4,30.08,SSE,153,0.0,0.0,56,0.00,,CLR,0.00,VWS V14.01,2013-05-15 00:44:00,
2013-05-14 20:49:00,63.5,47.1,30.08,SSE,160,0.0,0.0,55,0.00,,CLR,0.00,VWS V14.01,2013-05-15 00:49:00,
2013-05-14 20:54:00,62.9,48.8,30.08,SSE,148,0.0,2.0,60,0.00,,CLR,0.00,VWS V14.01,2013-05-15 00:54:00,
2013-05-14 20:59:00,62.0,48.4,30.08,SSE,150,0.0,0.0,61,0.00,,CLR,0.00,VWS V14.01,2013-05-15 00:59:00,
2013-05-14 21:04:00,61.7,48.1,30.08,SSE,151,0.0,0.0,61,0.00,,CLR,0.00,VWS V14.01,2013-05-15 01:04:00,
2013-05-14 21:09:00,61.4,48.3,30.08,SSE,149,0.0,0.0,62,0.00,,CLR,0.00,VWS V14.01,2013-05-15 01:09:00,
2013-05-14 21:14:00,61.1,48.4,30.08,SSE,149,0.0,0.0,63,0.00,,CLR,0.00,VWS V14.01,2013-05-15 01:14:00,
2013-05-14 21:19:00,61.3,48.6,30.08,SW,221,0.0,0.0,63,0.00,,CLR,0.00,VWS V14.01,2013-05-15 01:19:00,
2013-05-14 21:24:00,61.1,48.4,30.08,SE,145,0.0,0.0,63,0.00,,CLR,0.00,VWS V14.01,2013-05-15 01:24:00,
2013-05-14 21:29:00,61.0,48.3,30.08,South,172,0.0,0.0,63,0.00,,CLR,0.00,VWS V14.01,2013-05-15 01:29:00,
2013-05-14 21:34:00,60.7,47.6,30.08,SSE,163,0.0,0.0,62,0.00,,CLR,0.00,VWS V14.01,2013-05-15 01:34:00,
2013-05-14 21:39:00,61.2,47.7,30.08,SW,236,0.0,1.0,61,0.00,,SCT120,0.00,VWS V14.01,2013-05-15 01:39:00,
2013-05-14 21:44:00,61.6,48.0,30.08,SSW,207,2.0,3.0,61,0.00,,SCT120,0.00,VWS V14.01,2013-05-15 01:44:00,
2013-05-14 21:49:00,62.2,48.2,30.08,South,179,0.0,0.0,60,0.00,,SCT120,0.00,VWS V14.01,2013-05-15 01:49:00,
2013-05-14 21:54:00,62.1,48.5,30.08,South,184,0.0,0.0,61,0.00,,SCT120,0.00,VWS V14.01,2013-05-15 01:54:00,
2013-05-14 21:59:00,62.3,48.7,30.08,WSW,239,0.0,0.0,61,0.00,,CLR,0.00,VWS V14.01,2013-05-15 01:59:00,
2013-05-14 22:04:00,62.1,48.1,30.08,SSW,204,1.0,2.0,60,0.00,,CLR,0.00,VWS V14.01,2013-05-15 02:04:00,
2013-05-14 22:09:00,62.0,49.7,30.08,WSW,248,2.0,2.0,64,0.00,,CLR,0.00,VWS V14.01,2013-05-15 02:09:00,
2013-05-14 22:14:00,62.6,49.0,30.08,WSW,242,0.0,0.0,61,0.00,,CLR,0.00,VWS V14.01,2013-05-15 02:14:00,
2013-05-14 22:19:00,63.2,49.1,30.09,West,259,3.0,3.0,60,0.00,,CLR,0.00,VWS V14.01,2013-05-15 02:19:00,
2013-05-14 22:24:00,63.5,50.3,30.09,West,280,0.0,0.0,62,0.00,,CLR,0.00,VWS V14.01,2013-05-15 02:24:00,
2013-05-14 22:29:00,62.6,49.0,30.09,WSW,257,0.0,2.0,61,0.00,,CLR,0.00,VWS V14.01,2013-05-15 02:29:00,
2013-05-14 22:34:00,62.2,50.7,30.09,North,360,0.0,2.0,66,0.00,,CLR,0.00,VWS V14.01,2013-05-15 02:34:00,
2013-05-14 22:39:00,61.6,49.7,30.08,NNW,340,0.0,0.0,65,0.00,,CLR,0.00,VWS V14.01,2013-05-15 02:39:00,
2013-05-14 22:44:00,61.3,49.5,30.08,SW,218,1.0,2.0,65,0.00,,CLR,0.00,VWS V14.01,2013-05-15 02:44:00,
2013-05-14 22:49:00,61.6,49.3,30.08,SW,221,0.0,0.0,64,0.00,,CLR,0.00,VWS V14.01,2013-05-15 02:49:00,
2013-05-14 22:54:00,61.0,49.2,30.08,SW,224,0.0,0.0,65,0.00,,CLR,0.00,VWS V14.01,2013-05-15 02:54:00,
2013-05-14 22:59:00,60.6,49.2,30.08,SW,223,0.0,0.0,66,0.00,,CLR,0.00,VWS V14.01,2013-05-15 02:59:00,
2013-05-14 23:04:00,60.1,49.9,30.08,SW,224,0.0,0.0,69,0.00,,CLR,0.00,VWS V14.01,2013-05-15 03:04:00,
2013-05-14 23:09:00,59.4,50.0,30.08,North,355,0.0,0.0,71,0.00,,CLR,0.00,VWS V14.01,2013-05-15 03:09:00,
2013-05-14 23:14:00,59.0,50.0,30.08,North,354,0.0,0.0,72,0.00,,CLR,0.00,VWS V14.01,2013-05-15 03:14:00,
2013-05-14 23:19:00,58.2,49.6,30.08,North,354,0.0,0.0,73,0.00,,CLR,0.00,VWS V14.01,2013-05-15 03:19:00,
2013-05-14 23:24:00,57.6,49.8,30.08,North,354,0.0,0.0,75,0.00,,CLR,0.00,VWS V14.01,2013-05-15 03:24:00,
2013-05-14 23:29:00,57.4,50.3,30.08,North,354,0.0,0.0,77,0.00,,CLR,0.00,VWS V14.01,2013-05-15 03:29:00,
2013-05-14 23:34:00,57.0,49.9,30.08,North,359,0.0,0.0,77,0.00,,CLR,0.00,VWS V14.01,2013-05-15 03:34:00,
2013-05-14 23:39:00,56.7,50.3,30.08,North,358,0.0,0.0,79,0.00,,CLR,0.00,VWS V14.01,2013-05-15 03:39:00,
2013-05-14 23:44:00,56.3,50.2,30.08,North,359,0.0,0.0,80,0.00,,CLR,0.00,VWS V14.01,2013-05-15 03:44:00,
2013-05-14 23:49:00,55.9,50.2,30.07,North,359,0.0,0.0,81,0.00,,CLR,0.00,VWS V14.01,2013-05-15 03:49:00,
2013-05-14 23:54:00,55.5,49.8,30.07,North,359,0.0,0.0,81,0.00,,CLR,0.00,VWS V14.01,2013-05-15 03:54:00,